createdAt,value
2019-02-21T00:02:18.999Z,8.21
2019-02-21T00:04:47.274Z,8.13
2019-02-21T00:07:15.561Z,8.05
2019-02-21T00:09:43.873Z,8.05
2019-02-21T00:12:12.199Z,8.06
2019-02-21T00:14:40.537Z,8.03
2019-02-21T00:17:08.799Z,8.06
2019-02-21T00:19:37.080Z,8.06
2019-02-21T00:22:05.351Z,8.03
2019-02-21T00:24:33.641Z,8.05
2019-02-21T00:27:01.896Z,8.04
2019-02-21T00:29:30.189Z,8.05
2019-02-21T00:31:58.453Z,8.10
2019-02-21T00:34:26.717Z,8.09
2019-02-21T00:36:55.007Z,8.06
2019-02-21T00:39:23.271Z,8.08
2019-02-21T00:41:51.578Z,8.09
2019-02-21T00:44:19.848Z,8.09
2019-02-21T00:46:48.122Z,8.08
2019-02-21T00:49:16.393Z,8.10
2019-02-21T00:51:44.696Z,8.12
2019-02-21T00:54:12.968Z,8.12
2019-02-21T00:56:41.246Z,8.14
2019-02-21T00:59:10.139Z,8.17
2019-02-21T01:01:38.404Z,8.19
2019-02-21T01:04:06.750Z,8.13
2019-02-21T01:06:35.112Z,8.17
2019-02-21T01:09:04.711Z,8.15
2019-02-21T01:11:32.994Z,8.18
2019-02-21T01:14:01.261Z,8.16
2019-02-21T01:16:29.560Z,8.13
2019-02-21T01:18:57.826Z,8.13
2019-02-21T01:21:26.102Z,8.13
2019-02-21T01:23:54.391Z,8.13
2019-02-21T01:26:22.651Z,8.17
2019-02-21T01:28:51.001Z,8.16
2019-02-21T01:31:19.282Z,8.15
2019-02-21T01:33:47.554Z,8.13
2019-02-21T01:36:15.830Z,8.16
2019-02-21T01:38:44.111Z,8.19
2019-02-21T01:41:12.370Z,8.19
2019-02-21T01:43:41.188Z,8.17
2019-02-21T01:46:09.480Z,8.16
2019-02-21T01:48:37.770Z,8.19
2019-02-21T01:51:06.037Z,8.16
2019-02-21T01:53:34.318Z,8.18
2019-02-21T01:56:02.595Z,8.18
2019-02-21T01:58:30.840Z,8.17
2019-02-21T02:01:08.000Z,8.18
2019-02-21T02:03:29.168Z,8.20
2019-02-21T02:05:57.440Z,8.24
2019-02-21T02:08:25.775Z,8.22
2019-02-21T02:10:54.064Z,8.22
2019-02-21T02:13:24.914Z,8.21
2019-02-21T02:15:52.316Z,8.25
2019-02-21T02:18:20.573Z,8.27
2019-02-21T02:20:48.828Z,8.30
2019-02-21T02:23:17.116Z,8.29
2019-02-21T02:25:45.381Z,8.32
2019-02-21T02:28:13.651Z,8.28
2019-02-21T02:30:41.935Z,8.30
2019-02-21T02:33:10.214Z,8.30
2019-02-21T02:35:38.495Z,8.30
2019-02-21T02:38:06.758Z,8.31
2019-02-21T02:40:35.030Z,8.31
2019-02-21T02:43:03.293Z,8.30
2019-02-21T02:45:31.604Z,8.30
2019-02-21T02:47:59.877Z,8.26
2019-02-21T02:50:28.147Z,8.26
2019-02-21T02:52:56.419Z,8.26
2019-02-21T02:55:24.702Z,8.27
2019-02-21T03:04:54.657Z,8.23
2019-02-21T03:07:22.983Z,8.26
2019-02-21T03:09:51.224Z,8.27
2019-02-21T03:12:19.496Z,8.29
2019-02-21T03:14:47.769Z,8.25
2019-02-21T03:24:27.009Z,8.05
2019-02-21T03:26:55.278Z,8.00
2019-02-21T03:29:23.551Z,7.96
2019-02-21T03:31:55.061Z,7.93
2019-02-21T03:34:21.809Z,7.93
2019-02-21T03:36:50.099Z,7.90
2019-02-21T03:39:18.358Z,7.87
2019-02-21T03:41:46.622Z,7.85
2019-02-21T03:44:14.871Z,7.81
2019-02-21T03:46:43.141Z,7.75
2019-02-21T03:49:11.422Z,7.79
2019-02-21T03:51:39.709Z,7.77
2019-02-21T03:54:08.255Z,7.74
2019-02-21T03:56:36.526Z,7.76
2019-02-21T03:59:04.803Z,7.75
2019-02-21T04:01:33.077Z,7.75
2019-02-21T04:04:01.344Z,7.73
2019-02-21T04:06:29.638Z,7.74
2019-02-21T04:40:29.290Z,7.60
2019-02-21T04:42:57.630Z,7.63
2019-02-21T04:45:25.910Z,7.65
2019-02-21T04:47:54.178Z,7.66
2019-02-21T04:50:22.433Z,7.63
2019-02-21T04:52:50.731Z,7.67
2019-02-21T04:55:19.146Z,7.69
2019-02-21T04:57:47.407Z,7.67
2019-02-21T05:00:15.786Z,7.63
2019-02-21T05:02:44.054Z,7.63
2019-02-21T05:05:12.352Z,7.65
2019-02-21T05:07:40.659Z,7.65
2019-02-21T05:10:09.094Z,7.68
2019-02-21T05:12:37.340Z,7.67
2019-02-21T05:15:06.115Z,7.67
2019-02-21T05:17:34.402Z,7.69
2019-02-21T05:20:02.699Z,7.67
2019-02-21T05:22:30.964Z,7.66
2019-02-21T05:24:59.252Z,7.64
2019-02-21T05:27:29.171Z,7.59
2019-02-21T05:29:57.442Z,7.58
2019-02-21T05:32:27.349Z,7.58
2019-02-21T05:34:57.271Z,7.59
2019-02-21T05:37:42.283Z,7.57
2019-02-21T05:40:14.689Z,7.49
2019-02-21T05:42:59.314Z,7.48
2019-02-21T05:45:38.268Z,7.55
2019-02-21T05:48:14.225Z,7.61
2019-02-21T05:50:44.145Z,7.51
2019-02-21T05:53:14.056Z,7.49
2019-02-21T05:55:49.723Z,7.49
2019-02-21T05:58:31.492Z,7.57
2019-02-21T06:01:10.325Z,7.52
2019-02-21T06:03:52.266Z,7.55
2019-02-21T06:06:23.165Z,7.51
2019-02-21T06:08:55.818Z,7.55
2019-02-21T06:11:28.153Z,7.58
2019-02-21T06:14:00.775Z,7.59
2019-02-21T06:16:33.255Z,7.54
2019-02-21T06:19:05.776Z,7.54
2019-02-21T06:21:35.689Z,7.53
2019-02-21T06:24:05.600Z,7.52
2019-02-21T06:26:39.564Z,7.61
2019-02-21T06:29:09.950Z,7.61
2019-02-21T06:31:38.287Z,7.59
2019-02-21T06:34:06.554Z,7.57
2019-02-21T06:36:34.826Z,7.56
2019-02-21T06:39:04.468Z,7.55
2019-02-21T06:41:32.722Z,7.57
2019-02-21T06:44:00.997Z,7.55
2019-02-21T06:46:29.288Z,7.57
2019-02-21T06:48:57.553Z,7.55
2019-02-21T06:51:25.827Z,7.59
2019-02-21T06:53:54.254Z,7.58
2019-02-21T06:56:22.533Z,7.57
2019-02-21T06:58:50.818Z,7.61
2019-02-21T07:01:28.890Z,7.65
2019-02-21T07:03:49.087Z,7.65
2019-02-21T07:06:19.114Z,7.64
2019-02-21T07:08:47.494Z,7.70
2019-02-21T07:11:15.771Z,7.66
2019-02-21T07:13:44.614Z,7.67
2019-02-21T07:16:13.279Z,7.65
2019-02-21T07:18:41.554Z,7.65
2019-02-21T07:21:13.348Z,7.65
2019-02-21T07:23:43.755Z,7.71
2019-02-21T07:26:11.776Z,7.70
2019-02-21T07:28:41.671Z,7.74
2019-02-21T07:31:10.102Z,7.81
2019-02-21T07:33:39.044Z,7.83
2019-02-21T07:36:07.314Z,7.91
2019-02-21T07:38:35.578Z,7.95
2019-02-21T07:41:03.955Z,8.01
2019-02-21T07:43:32.185Z,8.11
2019-02-21T07:46:00.449Z,8.08
2019-02-21T07:48:28.735Z,8.08
2019-02-21T07:50:57.017Z,8.11
2019-02-21T07:53:25.283Z,8.10
2019-02-21T07:55:55.759Z,8.10
2019-02-21T07:58:23.549Z,8.11
2019-02-21T08:00:54.022Z,8.10
2019-02-21T08:03:29.777Z,8.11
2019-02-21T08:05:51.834Z,8.00
2019-02-21T08:08:20.989Z,8.03
2019-02-21T08:10:49.262Z,7.95
2019-02-21T08:13:17.545Z,7.88
2019-02-21T08:15:45.809Z,7.92
2019-02-21T08:18:14.091Z,7.94
2019-02-21T08:20:42.357Z,7.86
2019-02-21T08:23:11.106Z,7.91
2019-02-21T08:25:39.480Z,7.90
2019-02-21T08:28:07.770Z,7.89
2019-02-21T08:30:36.063Z,7.88
2019-02-21T08:33:05.971Z,7.84
2019-02-21T08:35:34.251Z,7.92
2019-02-21T08:38:02.550Z,7.94
2019-02-21T08:40:30.823Z,7.99
2019-02-21T08:42:59.083Z,7.90
2019-02-21T08:45:27.370Z,7.85
2019-02-21T08:47:55.633Z,7.89
2019-02-21T08:50:23.905Z,7.95
2019-02-21T08:52:52.186Z,7.97
2019-02-21T08:55:20.450Z,7.87
2019-02-21T08:57:48.725Z,7.84
2019-02-21T09:00:17.132Z,7.91
2019-02-21T09:02:45.478Z,8.00
2019-02-21T09:05:14.027Z,8.02
2019-02-21T09:07:42.243Z,8.07
2019-02-21T09:10:12.373Z,8.02
2019-02-21T09:12:40.637Z,8.17
2019-02-21T09:15:12.134Z,8.30
2019-02-21T09:17:40.438Z,8.41
2019-02-21T09:20:10.036Z,8.45
2019-02-21T09:22:38.327Z,8.53
2019-02-21T09:25:09.300Z,8.35
2019-02-21T09:27:37.600Z,8.35
2019-02-21T09:30:12.325Z,8.62
2019-02-21T09:32:42.032Z,8.63
2019-02-21T09:35:10.354Z,8.42
2019-02-21T09:37:38.635Z,8.49
2019-02-21T09:40:12.121Z,8.53
2019-02-21T09:42:40.326Z,8.56
2019-02-21T09:45:11.762Z,8.62
2019-02-21T09:47:40.060Z,8.40
2019-02-21T09:50:09.572Z,8.56
2019-02-21T09:52:37.828Z,8.60
2019-02-21T09:55:16.962Z,8.62
2019-02-21T09:57:45.295Z,8.56
2019-02-21T10:00:22.863Z,8.44
2019-02-21T10:02:54.234Z,8.45
2019-02-21T10:05:21.123Z,8.76
2019-02-21T10:07:49.413Z,8.66
2019-02-21T10:10:20.376Z,8.71
2019-02-21T10:12:48.674Z,8.91
2019-02-21T10:15:17.085Z,9.07
2019-02-21T10:17:45.356Z,9.10
2019-02-21T10:20:18.983Z,8.97
2019-02-21T10:22:47.261Z,9.02
2019-02-21T10:25:17.758Z,9.09
2019-02-21T10:27:46.034Z,8.98
2019-02-21T10:30:16.647Z,8.83
2019-02-21T10:32:44.981Z,8.93
2019-02-21T10:35:13.313Z,8.90
2019-02-21T10:37:41.602Z,9.00
2019-02-21T10:40:11.931Z,8.99
2019-02-21T10:42:40.194Z,8.98
2019-02-21T10:45:11.298Z,9.13
2019-02-21T10:47:39.568Z,9.22
2019-02-21T10:50:14.082Z,9.13
2019-02-21T10:52:44.327Z,9.02
2019-02-21T10:55:12.679Z,9.19
2019-02-21T10:57:41.027Z,9.13
2019-02-21T11:00:12.315Z,9.10
2019-02-21T11:02:40.582Z,9.06
2019-02-21T11:05:10.285Z,9.27
2019-02-21T11:07:38.568Z,9.52
2019-02-21T11:10:10.017Z,9.61
2019-02-21T11:12:38.279Z,9.56
2019-02-21T11:15:09.680Z,9.40
2019-02-21T11:17:37.949Z,9.42
2019-02-21T11:20:09.214Z,9.26
2019-02-21T11:22:37.501Z,9.21
2019-02-21T11:25:07.706Z,9.18
2019-02-21T11:27:35.974Z,9.31
2019-02-21T11:30:10.094Z,9.31
2019-02-21T11:32:38.348Z,9.24
2019-02-21T11:35:07.144Z,9.26
2019-02-21T11:37:42.706Z,9.38
2019-02-21T11:40:07.733Z,9.37
2019-02-21T11:42:35.986Z,9.50
2019-02-21T11:45:06.393Z,9.60
2019-02-21T11:47:34.672Z,9.61
2019-02-21T11:50:03.019Z,9.42
2019-02-21T11:52:31.287Z,9.48
2019-02-21T11:54:59.564Z,9.46
2019-02-21T11:57:27.829Z,9.35
2019-02-21T11:59:56.070Z,9.33
2019-02-21T12:02:24.323Z,9.37
2019-02-21T12:04:52.583Z,9.31
2019-02-21T12:07:20.851Z,9.27
2019-02-21T12:09:49.145Z,9.42
2019-02-21T12:12:17.412Z,9.45
2019-02-21T12:14:45.690Z,9.35
2019-02-21T12:17:13.960Z,9.28
2019-02-21T12:19:42.234Z,9.19
2019-02-21T12:22:10.573Z,9.25
2019-02-21T12:24:38.865Z,9.24
2019-02-21T12:27:07.116Z,9.13
2019-02-21T12:29:35.393Z,9.20
2019-02-21T12:32:03.656Z,9.16
2019-02-21T12:34:31.907Z,9.26
2019-02-21T12:37:00.192Z,9.20
2019-02-21T12:39:28.459Z,9.25
2019-02-21T12:41:56.745Z,9.20
2019-02-21T12:44:25.022Z,9.07
2019-02-21T12:46:53.285Z,9.05
2019-02-21T12:49:21.561Z,9.02
2019-02-21T12:51:49.828Z,9.06
2019-02-21T12:54:18.089Z,9.11
2019-02-21T12:56:46.353Z,9.18
2019-02-21T12:59:14.617Z,9.23
2019-02-21T13:01:42.886Z,9.15
2019-02-21T13:04:11.142Z,9.12
2019-02-21T13:06:39.396Z,9.16
2019-02-21T13:09:07.725Z,9.23
2019-02-21T13:11:35.999Z,9.18
2019-02-21T13:14:04.255Z,9.21
2019-02-21T13:16:32.507Z,9.17
2019-02-21T13:19:00.760Z,9.25
2019-02-21T13:21:29.031Z,9.27
2019-02-21T13:23:57.312Z,9.34
2019-02-21T13:26:27.971Z,9.31
2019-02-21T13:28:56.219Z,9.36
2019-02-21T13:31:24.704Z,9.42
2019-02-21T13:33:52.965Z,9.44
2019-02-21T13:36:22.765Z,9.34
2019-02-21T13:38:51.032Z,9.38
2019-02-21T13:41:19.293Z,9.22
2019-02-21T13:43:47.595Z,8.98
2019-02-21T13:46:15.866Z,8.93
2019-02-21T13:48:44.178Z,8.95
2019-02-21T13:51:12.413Z,8.95
2019-02-21T13:53:41.709Z,8.99
2019-02-21T13:56:10.041Z,8.92
2019-02-21T13:58:38.315Z,8.94
2019-02-21T14:01:06.586Z,8.94
2019-02-21T14:03:34.955Z,9.06
2019-02-21T14:06:04.082Z,9.08
2019-02-21T14:08:32.314Z,8.93
2019-02-21T14:11:00.578Z,9.00
2019-02-21T14:13:28.857Z,9.03
2019-02-21T14:15:57.131Z,8.95
2019-02-21T14:18:25.397Z,8.88
2019-02-21T14:20:53.663Z,8.93
2019-02-21T14:23:21.942Z,8.99
2019-02-21T14:25:50.228Z,8.95
2019-02-21T14:28:18.498Z,8.98
2019-02-21T14:30:46.764Z,8.93
2019-02-21T14:33:17.398Z,8.95
2019-02-21T14:35:45.042Z,8.95
2019-02-21T14:38:13.292Z,8.99
2019-02-21T14:40:41.593Z,8.92
2019-02-21T14:43:09.863Z,8.78
2019-02-21T14:45:38.166Z,8.81
2019-02-21T14:48:06.438Z,8.81
2019-02-21T14:50:36.103Z,8.86
2019-02-21T14:53:04.539Z,8.90
2019-02-21T14:55:32.819Z,8.92
2019-02-21T14:58:01.091Z,8.75
2019-02-21T15:00:29.830Z,8.65
2019-02-21T15:02:58.177Z,8.65
2019-02-21T15:05:26.433Z,8.64
2019-02-21T15:07:54.718Z,8.56
2019-02-21T15:10:22.985Z,8.56
2019-02-21T15:12:51.277Z,8.59
2019-02-21T15:15:24.863Z,8.58
2019-02-21T15:17:53.129Z,8.56
2019-02-21T15:20:21.417Z,8.66
2019-02-21T15:22:49.687Z,8.65
2019-02-21T15:25:17.964Z,8.56
2019-02-21T15:27:46.376Z,8.49
2019-02-21T15:30:22.423Z,8.58
2019-02-21T15:32:50.685Z,8.46
2019-02-21T15:35:19.682Z,8.53
2019-02-21T15:37:48.017Z,8.51
2019-02-21T15:40:16.291Z,8.44
2019-02-21T15:42:44.564Z,8.47
2019-02-21T15:45:26.715Z,8.39
2019-02-21T15:47:54.972Z,8.43
2019-02-21T15:50:23.248Z,8.48
2019-02-21T15:52:56.063Z,8.41
2019-02-21T15:55:24.330Z,8.41
2019-02-21T15:58:03.235Z,8.45
2019-02-21T16:00:23.828Z,8.42
2019-02-21T16:02:52.152Z,8.49
2019-02-21T16:05:20.432Z,8.54
2019-02-21T16:07:48.692Z,8.53
2019-02-21T16:10:25.103Z,8.50
2019-02-21T16:12:53.487Z,8.44
2019-02-21T16:15:21.735Z,8.43
2019-02-21T16:17:50.871Z,8.41
2019-02-21T16:20:20.237Z,8.44
2019-02-21T16:22:48.552Z,8.52
2019-02-21T16:25:22.590Z,8.44
2019-02-21T16:27:50.872Z,8.35
2019-02-21T16:30:21.868Z,8.25
2019-02-21T16:32:49.435Z,8.28
2019-02-21T16:35:17.703Z,8.28
2019-02-21T16:37:45.967Z,8.35
2019-02-21T16:40:16.372Z,8.37
2019-02-21T16:42:44.666Z,8.32
2019-02-21T16:45:22.766Z,8.30
2019-02-21T16:47:51.114Z,8.27
2019-02-21T16:50:29.438Z,8.23
2019-02-21T16:52:49.386Z,8.21
2019-02-21T16:55:22.641Z,8.28
2019-02-21T16:57:50.920Z,8.28
2019-02-21T17:00:21.336Z,8.22
2019-02-21T17:02:49.619Z,8.22
2019-02-21T17:05:17.892Z,8.19
2019-02-21T17:07:46.171Z,8.20
2019-02-21T17:10:15.682Z,8.15
2019-02-21T17:12:43.948Z,8.16
2019-02-21T17:15:16.628Z,8.14
2019-02-21T17:17:44.916Z,8.16
2019-02-21T17:20:21.268Z,8.15
2019-02-21T17:22:49.553Z,8.07
2019-02-21T17:25:17.835Z,8.08
2019-02-21T17:27:46.439Z,8.06
2019-02-21T17:30:18.512Z,8.10
2019-02-21T17:32:46.758Z,8.14
2019-02-21T17:35:15.195Z,8.46
2019-02-21T17:37:43.460Z,8.57
2019-02-21T17:40:14.849Z,8.53
2019-02-21T17:42:43.111Z,8.55
2019-02-21T17:45:11.711Z,8.37
2019-02-21T17:47:39.998Z,8.23
2019-02-21T17:50:11.385Z,8.13
2019-02-21T17:52:39.643Z,8.19
2019-02-21T17:55:09.849Z,8.08
2019-02-21T17:57:38.116Z,7.98
2019-02-21T18:00:17.269Z,7.98
2019-02-21T18:02:45.416Z,7.87
2019-02-21T18:05:13.685Z,7.84
2019-02-21T18:07:41.951Z,7.88
2019-02-21T18:10:12.954Z,7.90
2019-02-21T18:12:41.219Z,7.95
2019-02-21T18:15:11.523Z,7.87
2019-02-21T18:17:39.801Z,7.83
2019-02-21T18:20:10.525Z,7.78
2019-02-21T18:22:38.850Z,7.78
2019-02-21T18:25:19.332Z,7.76
2019-02-21T18:27:47.608Z,7.73
2019-02-21T18:30:17.138Z,7.80
2019-02-21T18:32:45.419Z,7.79
2019-02-21T18:35:13.859Z,7.77
2019-02-21T18:37:47.444Z,7.76
2019-02-21T18:40:20.620Z,7.73
2019-02-21T18:42:47.913Z,7.71
2019-02-21T18:45:16.227Z,7.72
2019-02-21T18:47:44.471Z,7.72
2019-02-21T18:50:13.885Z,7.74
2019-02-21T18:52:42.187Z,7.70
2019-02-21T18:55:10.739Z,7.73
2019-02-21T18:57:39.005Z,7.67
2019-02-21T19:00:12.720Z,7.67
2019-02-21T19:02:41.064Z,7.66
2019-02-21T19:05:09.509Z,7.65
2019-02-21T19:07:37.789Z,7.62
2019-02-21T19:10:11.678Z,7.61
2019-02-21T19:12:39.955Z,7.62
2019-02-21T19:15:09.864Z,7.67
2019-02-21T19:17:38.125Z,7.58
2019-02-21T19:20:11.687Z,7.61
2019-02-21T19:22:40.038Z,7.61
2019-02-21T19:25:10.162Z,7.63
2019-02-21T19:27:38.419Z,7.70
2019-02-21T19:30:12.338Z,7.64
2019-02-21T19:32:40.609Z,7.62
2019-02-21T19:35:09.427Z,7.62
2019-02-21T19:37:37.712Z,7.71
2019-02-21T19:40:08.614Z,7.69
2019-02-21T19:42:36.963Z,7.71
2019-02-21T19:45:06.976Z,7.63
2019-02-21T19:47:35.635Z,7.60
2019-02-21T19:50:05.644Z,7.61
2019-02-21T19:52:33.917Z,7.57
2019-02-21T19:55:02.214Z,7.54
2019-02-21T19:57:30.512Z,7.60
2019-02-21T19:59:58.784Z,7.57
2019-02-21T20:02:27.125Z,7.57
2019-02-21T20:04:55.403Z,7.51
2019-02-21T20:07:23.698Z,7.56
2019-02-21T20:09:51.982Z,7.49
2019-02-21T20:12:20.253Z,7.55
2019-02-21T20:14:48.526Z,7.56
2019-02-21T20:17:16.811Z,7.67
2019-02-21T20:19:45.070Z,7.65
2019-02-21T20:22:13.356Z,7.69
2019-02-21T20:24:41.648Z,7.63
2019-02-21T20:27:09.923Z,7.61
2019-02-21T20:29:38.218Z,7.60
2019-02-21T20:32:06.528Z,7.63
2019-02-21T20:34:34.810Z,7.58
2019-02-21T20:37:03.084Z,7.56
2019-02-21T20:39:31.371Z,7.55
2019-02-21T20:41:59.655Z,7.57
2019-02-21T20:44:27.908Z,7.54
2019-02-21T20:46:56.180Z,7.50
2019-02-21T20:49:24.546Z,7.52
2019-02-21T20:51:52.845Z,7.47
2019-02-21T20:54:21.138Z,7.50
2019-02-21T20:56:49.419Z,7.44
2019-02-21T20:59:17.684Z,7.35
2019-02-21T21:01:45.952Z,7.37
2019-02-21T21:04:14.226Z,7.44
2019-02-21T21:06:42.532Z,7.43
2019-02-21T21:09:10.828Z,7.38
2019-02-21T21:11:39.101Z,7.34
2019-02-21T21:14:07.385Z,7.28
2019-02-21T21:16:35.689Z,7.29
2019-02-21T21:19:03.945Z,7.19
2019-02-21T21:21:32.233Z,7.17
2019-02-21T21:24:00.533Z,7.17
2019-02-21T21:26:28.810Z,7.15
2019-02-21T21:28:57.087Z,7.17
2019-02-21T21:31:25.400Z,7.19
2019-02-21T21:33:53.724Z,7.14
2019-02-21T21:36:21.987Z,7.17
2019-02-21T21:38:54.189Z,7.14
2019-02-21T21:41:20.255Z,7.14
2019-02-21T21:43:48.548Z,7.26
2019-02-21T21:46:16.836Z,7.21
2019-02-21T21:48:45.126Z,7.16
2019-02-21T21:51:13.409Z,7.10
2019-02-21T21:53:41.718Z,7.06
2019-02-21T21:56:09.997Z,7.01
2019-02-21T21:58:38.308Z,7.14
2019-02-21T22:01:06.658Z,7.16
2019-02-21T22:03:35.121Z,7.20
2019-02-21T22:06:03.405Z,7.22
2019-02-21T22:08:31.725Z,7.34
2019-02-21T22:11:00.043Z,7.22
2019-02-21T22:13:28.327Z,7.07
2019-02-21T22:15:56.752Z,7.09
2019-02-21T22:18:25.031Z,7.09
2019-02-21T22:20:53.317Z,7.10
2019-02-21T22:23:21.613Z,7.20
2019-02-21T22:25:49.880Z,7.27
2019-02-21T22:28:18.156Z,7.25
2019-02-21T22:30:46.583Z,7.08
2019-02-21T22:33:14.841Z,7.18
2019-02-21T22:35:43.118Z,7.06
2019-02-21T22:38:11.381Z,7.14
2019-02-21T22:40:39.667Z,7.13
2019-02-21T22:43:07.953Z,7.22
2019-02-21T22:45:36.230Z,7.19
2019-02-21T22:48:04.521Z,7.13
2019-02-21T22:50:32.822Z,7.20
2019-02-21T22:53:01.107Z,7.21
2019-02-21T22:55:29.400Z,7.18
2019-02-21T22:57:57.689Z,7.13
2019-02-21T23:00:36.635Z,7.20
2019-02-21T23:03:07.798Z,7.28
2019-02-21T23:06:00.297Z,7.38
2019-02-21T23:08:45.163Z,7.26
2019-02-21T23:11:13.714Z,7.26
2019-02-21T23:13:41.988Z,7.37
2019-02-21T23:16:10.253Z,7.35
2019-02-21T23:18:38.542Z,7.21
2019-02-21T23:21:06.793Z,7.27
2019-02-21T23:23:35.060Z,7.26
2019-02-21T23:26:03.330Z,7.31
2019-02-21T23:28:31.591Z,7.23
2019-02-21T23:30:59.880Z,7.35
2019-02-21T23:33:28.906Z,7.28
2019-02-21T23:35:57.203Z,7.30
2019-02-21T23:38:25.459Z,7.33
2019-02-21T23:40:53.727Z,7.29
2019-02-21T23:43:22.030Z,7.26
2019-02-21T23:45:50.341Z,7.37
2019-02-21T23:48:18.619Z,7.47
2019-02-21T23:50:46.893Z,7.43
2019-02-21T23:53:15.147Z,7.35
2019-02-21T23:55:43.412Z,7.40
2019-02-21T23:58:11.689Z,7.36
